sensor_id;sensor_type;location;lat;lon;timestamp;pressure;altitude;pressure_sealevel;temperature;humidity
70458;BME280;57919;56.194;95.716;2022-09-24T00:05:40;98758.97;;;8.24;52.35
70458;BME280;57919;56.194;95.716;2022-09-24T00:15:45;98771.53;;;8.35;52.06
70458;BME280;57919;56.194;95.716;2022-09-24T00:25:47;98782.25;;;8.46;52.03
70458;BME280;57919;56.194;95.716;2022-09-24T00:36:08;98794.66;;;8.58;51.87
70458;BME280;57919;56.194;95.716;2022-09-24T00:56:19;98795.13;;;8.63;51.19
70458;BME280;57919;56.194;95.716;2022-09-24T01:06:24;98783.66;;;8.71;51.12
70458;BME280;57919;56.194;95.716;2022-09-24T01:27:18;98787.91;;;9.44;49.52
70458;BME280;57919;56.194;95.716;2022-09-24T01:37:23;98781.94;;;9.41;49.11
70458;BME280;57919;56.194;95.716;2022-09-24T01:47:35;98837.47;;;9.33;49.36
70458;BME280;57919;56.194;95.716;2022-09-24T01:57:47;98840.16;;;9.33;50.26
70458;BME280;57919;56.194;95.716;2022-09-24T02:08:04;98845.00;;;9.39;49.49
70458;BME280;57919;56.194;95.716;2022-09-24T02:18:09;98842.47;;;9.48;49.45
70458;BME280;57919;56.194;95.716;2022-09-24T02:28:12;98854.22;;;9.77;48.04
70458;BME280;57919;56.194;95.716;2022-09-24T02:38:17;98855.81;;;10.18;47.01
70458;BME280;57919;56.194;95.716;2022-09-24T02:48:20;98865.53;;;10.30;45.47
70458;BME280;57919;56.194;95.716;2022-09-24T02:58:22;98879.91;;;10.41;45.75
70458;BME280;57919;56.194;95.716;2022-09-24T03:08:24;98887.53;;;10.16;46.35
70458;BME280;57919;56.194;95.716;2022-09-24T03:18:26;98904.81;;;10.44;45.32
70458;BME280;57919;56.194;95.716;2022-09-24T03:28:29;98884.81;;;10.93;43.74
70458;BME280;57919;56.194;95.716;2022-09-24T03:38:33;98909.75;;;10.97;44.18
70458;BME280;57919;56.194;95.716;2022-09-24T03:48:38;98912.34;;;11.36;44.50
70458;BME280;57919;56.194;95.716;2022-09-24T03:58:41;98911.09;;;11.67;44.02
70458;BME280;57919;56.194;95.716;2022-09-24T04:08:45;98909.03;;;12.06;42.30
70458;BME280;57919;56.194;95.716;2022-09-24T04:18:47;98928.28;;;11.85;41.21
70458;BME280;57919;56.194;95.716;2022-09-24T04:28:49;98929.91;;;11.22;42.21
70458;BME280;57919;56.194;95.716;2022-09-24T04:38:51;98930.66;;;11.14;42.97
70458;BME280;57919;56.194;95.716;2022-09-24T04:48:53;98952.44;;;11.22;42.81
70458;BME280;57919;56.194;95.716;2022-09-24T04:58:56;98966.63;;;11.44;41.97
70458;BME280;57919;56.194;95.716;2022-09-24T05:08:58;99010.69;;;10.40;47.55
70458;BME280;57919;56.194;95.716;2022-09-24T05:19:00;99063.22;;;8.05;54.80
70458;BME280;57919;56.194;95.716;2022-09-24T05:29:05;99080.00;;;7.86;57.73
70458;BME280;57919;56.194;95.716;2022-09-24T05:39:07;99089.91;;;8.19;57.28
70458;BME280;57919;56.194;95.716;2022-09-24T05:49:09;99110.72;;;7.95;57.88
70458;BME280;57919;56.194;95.716;2022-09-24T05:59:11;99090.47;;;7.44;59.59
70458;BME280;57919;56.194;95.716;2022-09-24T06:09:13;99106.47;;;7.00;59.85
70458;BME280;57919;56.194;95.716;2022-09-24T06:19:15;99125.44;;;7.44;59.08
70458;BME280;57919;56.194;95.716;2022-09-24T06:29:17;99133.09;;;7.62;59.56
70458;BME280;57919;56.194;95.716;2022-09-24T06:39:21;99114.53;;;7.92;58.54
70458;BME280;57919;56.194;95.716;2022-09-24T06:49:24;99129.72;;;8.04;58.30
70458;BME280;57919;56.194;95.716;2022-09-24T06:59:26;99151.38;;;8.81;56.30
70458;BME280;57919;56.194;95.716;2022-09-24T07:09:28;99151.28;;;9.15;55.79
70458;BME280;57919;56.194;95.716;2022-09-24T07:19:30;99157.53;;;9.68;54.80
70458;BME280;57919;56.194;95.716;2022-09-24T07:29:32;99153.00;;;9.89;53.99
70458;BME280;57919;56.194;95.716;2022-09-24T07:39:33;99172.47;;;9.51;52.77
70458;BME280;57919;56.194;95.716;2022-09-24T07:49:36;99225.47;;;8.08;58.51
70458;BME280;57919;56.194;95.716;2022-09-24T07:59:39;99212.59;;;7.07;62.29
70458;BME280;57919;56.194;95.716;2022-09-24T08:09:41;99208.03;;;7.44;61.76
70458;BME280;57919;56.194;95.716;2022-09-24T08:19:43;99211.53;;;8.15;60.86
70458;BME280;57919;56.194;95.716;2022-09-24T08:29:47;99213.56;;;8.46;59.83
70458;BME280;57919;56.194;95.716;2022-09-24T08:39:49;99228.59;;;9.04;58.62
70458;BME280;57919;56.194;95.716;2022-09-24T09:00:14;99244.91;;;9.46;58.22
70458;BME280;57919;56.194;95.716;2022-09-24T09:10:20;99249.84;;;9.41;58.08
70458;BME280;57919;56.194;95.716;2022-09-24T09:31:25;99257.53;;;9.02;59.23
70458;BME280;57919;56.194;95.716;2022-09-24T09:41:19;99258.63;;;9.54;58.06
70458;BME280;57919;56.194;95.716;2022-09-24T09:51:25;99258.78;;;9.53;57.76
70458;BME280;57919;56.194;95.716;2022-09-24T10:01:32;99267.78;;;9.74;57.06
70458;BME280;57919;56.194;95.716;2022-09-24T10:11:35;99270.78;;;10.13;56.50
70458;BME280;57919;56.194;95.716;2022-09-24T10:21:37;99272.00;;;10.20;56.19
70458;BME280;57919;56.194;95.716;2022-09-24T10:31:39;99275.41;;;10.63;55.22
70458;BME280;57919;56.194;95.716;2022-09-24T10:41:49;99269.50;;;10.28;53.69
70458;BME280;57919;56.194;95.716;2022-09-24T11:13:19;99280.06;;;9.99;52.97
70458;BME280;57919;56.194;95.716;2022-09-24T11:34:03;99292.22;;;9.18;53.17
70458;BME280;57919;56.194;95.716;2022-09-24T12:05:04;99304.75;;;8.86;53.69
70458;BME280;57919;56.194;95.716;2022-09-24T12:15:20;99298.50;;;8.63;54.24
70458;BME280;57919;56.194;95.716;2022-09-24T12:25:32;99312.56;;;8.55;54.98
70458;BME280;57919;56.194;95.716;2022-09-24T12:35:38;99311.50;;;8.23;55.68
70458;BME280;57919;56.194;95.716;2022-09-24T12:45:42;99309.97;;;7.72;56.86
70458;BME280;57919;56.194;95.716;2022-09-24T12:55:44;99315.38;;;7.36;58.01
70458;BME280;57919;56.194;95.716;2022-09-24T13:05:47;99310.94;;;7.11;58.57
70458;BME280;57919;56.194;95.716;2022-09-24T13:16:02;99318.94;;;6.87;59.62
70458;BME280;57919;56.194;95.716;2022-09-24T13:26:12;99312.09;;;6.58;60.37
70458;BME280;57919;56.194;95.716;2022-09-24T13:36:18;99324.44;;;6.35;60.81
70458;BME280;57919;56.194;95.716;2022-09-24T13:46:25;99329.00;;;6.07;61.92
70458;BME280;57919;56.194;95.716;2022-09-24T13:56:28;99337.28;;;5.50;63.93
70458;BME280;57919;56.194;95.716;2022-09-24T14:06:37;99354.25;;;5.51;64.19
70458;BME280;57919;56.194;95.716;2022-09-24T14:16:39;99338.25;;;5.76;63.56
70458;BME280;57919;56.194;95.716;2022-09-24T14:26:54;99329.53;;;5.73;63.38
70458;BME280;57919;56.194;95.716;2022-09-24T14:37:09;99326.00;;;5.45;64.04
70458;BME280;57919;56.194;95.716;2022-09-24T14:47:32;99322.53;;;5.02;64.74
70458;BME280;57919;56.194;95.716;2022-09-24T14:57:36;99321.50;;;4.91;64.79
70458;BME280;57919;56.194;95.716;2022-09-24T15:07:38;99320.94;;;4.71;65.01
70458;BME280;57919;56.194;95.716;2022-09-24T15:17:40;99325.06;;;4.48;65.79
70458;BME280;57919;56.194;95.716;2022-09-24T15:27:44;99326.84;;;4.19;66.40
70458;BME280;57919;56.194;95.716;2022-09-24T15:37:46;99324.56;;;4.28;66.13
70458;BME280;57919;56.194;95.716;2022-09-24T15:47:51;99299.69;;;4.26;66.66
70458;BME280;57919;56.194;95.716;2022-09-24T15:57:53;99298.44;;;4.31;66.90
70458;BME280;57919;56.194;95.716;2022-09-24T16:07:55;99294.44;;;4.38;67.12
70458;BME280;57919;56.194;95.716;2022-09-24T16:17:58;99299.88;;;4.22;67.45
70458;BME280;57919;56.194;95.716;2022-09-24T16:28:01;99304.28;;;4.24;67.78
70458;BME280;57919;56.194;95.716;2022-09-24T16:38:03;99289.75;;;4.28;67.80
70458;BME280;57919;56.194;95.716;2022-09-24T16:48:05;99275.19;;;4.17;68.61
70458;BME280;57919;56.194;95.716;2022-09-24T16:58:07;99275.00;;;4.06;69.04
70458;BME280;57919;56.194;95.716;2022-09-24T17:08:10;99251.78;;;3.63;70.29
70458;BME280;57919;56.194;95.716;2022-09-24T17:18:12;99242.66;;;3.51;70.63
70458;BME280;57919;56.194;95.716;2022-09-24T17:28:14;99217.84;;;3.63;70.68
70458;BME280;57919;56.194;95.716;2022-09-24T17:38:16;99231.69;;;3.55;70.78
70458;BME280;57919;56.194;95.716;2022-09-24T17:48:18;99227.00;;;3.29;71.53
70458;BME280;57919;56.194;95.716;2022-09-24T17:58:21;99216.09;;;3.18;72.02
70458;BME280;57919;56.194;95.716;2022-09-24T18:08:22;99202.66;;;3.04;72.40
70458;BME280;57919;56.194;95.716;2022-09-24T18:18:25;99203.72;;;3.31;71.91
70458;BME280;57919;56.194;95.716;2022-09-24T18:28:27;99186.69;;;3.48;71.76
70458;BME280;57919;56.194;95.716;2022-09-24T18:38:28;99172.00;;;3.55;71.88
70458;BME280;57919;56.194;95.716;2022-09-24T18:48:32;99127.56;;;3.52;72.04
70458;BME280;57919;56.194;95.716;2022-09-24T18:58:34;99142.13;;;3.77;71.75
70458;BME280;57919;56.194;95.716;2022-09-24T19:08:36;99137.44;;;3.80;71.58
70458;BME280;57919;56.194;95.716;2022-09-24T19:18:39;99140.31;;;3.92;71.45
70458;BME280;57919;56.194;95.716;2022-09-24T19:28:42;99103.53;;;3.81;71.37
70458;BME280;57919;56.194;95.716;2022-09-24T19:38:45;99103.53;;;3.81;71.86
70458;BME280;57919;56.194;95.716;2022-09-24T19:48:48;99110.00;;;3.77;71.64
70458;BME280;57919;56.194;95.716;2022-09-24T19:58:55;99097.25;;;4.23;70.95
70458;BME280;57919;56.194;95.716;2022-09-24T20:08:57;99078.94;;;4.03;71.29
70458;BME280;57919;56.194;95.716;2022-09-24T20:19:01;99063.78;;;3.75;72.29
70458;BME280;57919;56.194;95.716;2022-09-24T20:29:06;99048.88;;;3.56;72.86
70458;BME280;57919;56.194;95.716;2022-09-24T20:39:10;99029.19;;;3.58;73.16
70458;BME280;57919;56.194;95.716;2022-09-24T20:49:17;99011.44;;;3.56;73.35
70458;BME280;57919;56.194;95.716;2022-09-24T20:59:23;99008.97;;;3.53;73.68
70458;BME280;57919;56.194;95.716;2022-09-24T21:09:27;98997.69;;;3.63;73.36
70458;BME280;57919;56.194;95.716;2022-09-24T21:19:31;99033.78;;;3.70;73.84
70458;BME280;57919;56.194;95.716;2022-09-24T21:29:37;99024.94;;;3.96;72.98
70458;BME280;57919;56.194;95.716;2022-09-24T21:39:39;99030.16;;;4.12;73.22
70458;BME280;57919;56.194;95.716;2022-09-24T21:49:42;99026.94;;;4.34;72.76
70458;BME280;57919;56.194;95.716;2022-09-24T21:59:45;99003.66;;;4.21;72.77
70458;BME280;57919;56.194;95.716;2022-09-24T22:10:16;99017.66;;;4.12;73.33
70458;BME280;57919;56.194;95.716;2022-09-24T22:20:17;99023.03;;;3.98;73.87
70458;BME280;57919;56.194;95.716;2022-09-24T22:30:19;99007.19;;;3.95;74.06
70458;BME280;57919;56.194;95.716;2022-09-24T22:40:21;98991.13;;;4.22;73.93
70458;BME280;57919;56.194;95.716;2022-09-24T22:50:24;98986.19;;;4.56;73.17
70458;BME280;57919;56.194;95.716;2022-09-24T23:00:26;98987.41;;;4.64;72.82
70458;BME280;57919;56.194;95.716;2022-09-24T23:10:28;98980.09;;;4.53;73.18
70458;BME280;57919;56.194;95.716;2022-09-24T23:20:30;98977.63;;;4.50;73.33
70458;BME280;57919;56.194;95.716;2022-09-24T23:30:32;98967.75;;;4.51;72.92
70458;BME280;57919;56.194;95.716;2022-09-24T23:40:34;98953.97;;;4.57;72.76
70458;BME280;57919;56.194;95.716;2022-09-24T23:50:36;98966.50;;;4.69;72.79
